createdAt,value
2022-10-23T00:01:18.530Z,74.30
2022-10-23T00:03:47.515Z,74.30
2022-10-23T00:06:16.306Z,74.40
2022-10-23T00:08:44.766Z,74.40
2022-10-23T00:11:16.371Z,74.40
2022-10-23T00:13:44.626Z,74.30
2022-10-23T00:16:12.819Z,74.20
2022-10-23T00:18:42.730Z,74.30
2022-10-23T00:21:12.799Z,74.10
2022-10-23T00:23:41.595Z,73.80
2022-10-23T00:26:15.101Z,73.70
2022-10-23T00:28:43.814Z,73.60
2022-10-23T00:31:12.317Z,73.50
2022-10-23T00:33:42.436Z,73.30
2022-10-23T00:36:13.362Z,73.20
2022-10-23T00:38:41.871Z,73.20
2022-10-23T00:41:21.674Z,73.30
2022-10-23T00:44:06.485Z,73.30
2022-10-23T00:46:36.195Z,73.30
2022-10-23T00:49:06.751Z,73.60
2022-10-23T00:51:39.609Z,73.90
2022-10-23T00:54:25.410Z,74.20
2022-10-23T00:56:57.248Z,74.20
2022-10-23T00:59:25.940Z,74.20
2022-10-23T01:01:54.178Z,74.30
2022-10-23T01:04:24.212Z,74.20
2022-10-23T01:07:00.746Z,74.10
2022-10-23T01:09:33.559Z,74.10
2022-10-23T01:12:08.320Z,74.20
2022-10-23T01:14:44.091Z,74.10
2022-10-23T01:17:20.824Z,74.40
2022-10-23T01:20:11.823Z,74.80
2022-10-23T01:23:02.854Z,74.80
2022-10-23T01:25:47.400Z,74.70
2022-10-23T01:28:22.978Z,74.60
2022-10-23T01:30:51.394Z,74.70
2022-10-23T01:33:23.842Z,74.60
2022-10-23T01:35:57.806Z,74.50
2022-10-23T01:38:30.597Z,74.60
2022-10-23T01:41:03.292Z,74.60
2022-10-23T01:43:38.154Z,74.70
2022-10-23T01:46:11.550Z,75.00
2022-10-23T01:48:39.730Z,74.90
2022-10-23T01:51:10.890Z,74.50
2022-10-23T01:53:42.120Z,74.40
2022-10-23T01:56:13.407Z,74.30
2022-10-23T01:58:46.759Z,74.40
2022-10-23T02:01:16.775Z,74.50
2022-10-23T02:03:46.538Z,74.50
2022-10-23T02:06:14.908Z,74.50
2022-10-23T02:08:43.324Z,74.60
2022-10-23T02:11:14.245Z,74.50
2022-10-23T02:13:49.095Z,74.30
2022-10-23T02:16:24.231Z,74.30
2022-10-23T02:19:00.528Z,74.30
2022-10-23T02:21:35.275Z,74.30
2022-10-23T02:24:08.307Z,74.40
2022-10-23T02:26:41.494Z,74.50
2022-10-23T02:29:15.672Z,74.60
2022-10-23T02:31:43.838Z,74.70
2022-10-23T02:34:11.897Z,74.50
2022-10-23T02:36:40.131Z,74.40
2022-10-23T02:39:08.234Z,74.30
2022-10-23T02:41:43.413Z,74.00
2022-10-23T02:44:33.842Z,74.00
2022-10-23T02:47:11.390Z,74.30
2022-10-23T02:49:46.595Z,74.50
2022-10-23T02:52:19.448Z,74.70
2022-10-23T02:55:04.175Z,74.70
2022-10-23T02:57:36.582Z,74.70
2022-10-23T03:00:13.127Z,74.90
2022-10-23T03:02:45.243Z,74.90
2022-10-23T03:05:20.679Z,75.00
2022-10-23T03:07:49.239Z,75.10
2022-10-23T03:10:17.299Z,75.10
2022-10-23T03:12:47.071Z,75.20
2022-10-23T03:15:17.915Z,75.30
2022-10-23T03:17:45.992Z,75.50
2022-10-23T03:20:14.424Z,75.60
2022-10-23T03:22:42.700Z,75.50
2022-10-23T03:25:11.210Z,75.40
2022-10-23T03:27:39.264Z,75.40
2022-10-23T03:30:08.790Z,75.30
2022-10-23T03:32:38.219Z,75.50
2022-10-23T03:35:07.077Z,75.50
2022-10-23T03:37:35.331Z,75.50
2022-10-23T03:40:03.710Z,75.60
2022-10-23T03:42:31.745Z,75.60
2022-10-23T03:44:59.796Z,75.70
2022-10-23T03:47:27.881Z,75.60
2022-10-23T03:49:57.279Z,75.50
2022-10-23T03:54:58.266Z,75.30
2022-10-23T03:57:26.632Z,75.10
2022-10-23T03:59:55.151Z,75.10
2022-10-23T04:02:23.301Z,75.10
2022-10-23T04:04:51.354Z,75.00
2022-10-23T04:07:20.737Z,75.00
2022-10-23T04:09:48.784Z,75.20
2022-10-23T04:12:16.843Z,75.20
2022-10-23T04:14:44.905Z,75.30
2022-10-23T04:17:12.955Z,75.50
2022-10-23T04:19:40.992Z,75.50
2022-10-23T04:22:09.032Z,75.60
2022-10-23T04:24:38.515Z,75.50
2022-10-23T04:27:06.768Z,75.40
2022-10-23T04:29:34.826Z,75.40
2022-10-23T04:32:02.889Z,75.50
2022-10-23T04:34:30.927Z,75.60
2022-10-23T04:36:58.945Z,75.60
2022-10-23T04:39:27.124Z,75.40
2022-10-23T04:41:56.540Z,75.10
2022-10-23T04:44:24.639Z,75.10
2022-10-23T04:46:52.702Z,75.00
2022-10-23T04:49:20.731Z,75.00
2022-10-23T04:51:48.794Z,75.00
2022-10-23T04:54:16.902Z,75.00
2022-10-23T04:56:45.056Z,74.90
2022-10-23T04:59:14.569Z,74.90
2022-10-23T05:01:42.686Z,74.90
2022-10-23T05:04:10.851Z,74.90
2022-10-23T05:06:38.927Z,74.70
2022-10-23T05:09:06.972Z,74.60
2022-10-23T05:11:35.021Z,74.80
2022-10-23T05:14:03.067Z,75.00
2022-10-23T05:16:39.004Z,75.20
2022-10-23T05:19:11.811Z,75.40
2022-10-23T05:21:41.675Z,75.50
2022-10-23T05:24:11.428Z,75.40
2022-10-23T05:26:39.431Z,75.40
2022-10-23T05:29:07.459Z,75.50
2022-10-23T05:31:37.415Z,75.70
2022-10-23T05:34:06.838Z,75.80
2022-10-23T05:36:35.806Z,75.80
2022-10-23T05:39:04.026Z,75.40
2022-10-23T05:41:32.389Z,75.10
2022-10-23T05:44:00.406Z,74.90
2022-10-23T05:46:29.030Z,74.90
2022-10-23T05:51:27.374Z,75.20
2022-10-23T05:53:57.469Z,75.20
2022-10-23T05:56:25.539Z,75.10
2022-10-23T05:58:53.570Z,75.10
2022-10-23T06:01:23.089Z,75.20
2022-10-23T06:03:52.199Z,75.20
2022-10-23T06:06:21.637Z,75.20
2022-10-23T06:08:49.644Z,75.30
2022-10-23T06:11:17.736Z,75.40
2022-10-23T06:13:46.708Z,75.50
2022-10-23T06:16:16.705Z,75.50
2022-10-23T06:18:45.943Z,75.50
2022-10-23T06:21:15.078Z,75.40
2022-10-23T06:23:45.630Z,75.40
2022-10-23T06:26:15.498Z,75.30
2022-10-23T06:28:43.988Z,75.40
2022-10-23T06:31:15.018Z,75.50
2022-10-23T06:33:43.402Z,75.60
2022-10-23T06:36:11.604Z,76.50
2022-10-23T06:38:40.647Z,75.80
2022-10-23T06:41:15.247Z,75.80
2022-10-23T06:43:43.383Z,75.80
2022-10-23T06:46:11.775Z,75.80
2022-10-23T06:48:39.806Z,75.60
2022-10-23T06:51:09.229Z,75.50
2022-10-23T06:53:37.939Z,75.60
2022-10-23T06:56:07.639Z,75.80
2022-10-23T06:58:38.303Z,75.90
2022-10-23T07:01:08.936Z,76.00
2022-10-23T07:03:37.309Z,75.90
2022-10-23T07:06:07.603Z,76.00
2022-10-23T07:08:35.707Z,76.10
2022-10-23T07:11:05.456Z,76.30
2022-10-23T07:13:36.264Z,76.30
2022-10-23T07:16:11.968Z,76.20
2022-10-23T07:18:40.101Z,76.30
2022-10-23T07:21:08.304Z,76.40
2022-10-23T07:23:36.362Z,76.60
2022-10-23T07:26:06.314Z,76.70
2022-10-23T07:28:36.149Z,77.00
2022-10-23T07:31:04.727Z,77.10
2022-10-23T07:33:32.748Z,77.10
2022-10-23T07:36:01.016Z,77.10
2022-10-23T07:38:29.108Z,77.30
2022-10-23T07:40:59.243Z,77.30
2022-10-23T07:43:28.007Z,77.30
2022-10-23T07:45:57.624Z,77.30
2022-10-23T07:48:27.253Z,77.30
2022-10-23T07:50:55.737Z,77.30
2022-10-23T07:53:26.086Z,77.50
2022-10-23T07:55:55.053Z,77.60
2022-10-23T07:58:23.574Z,77.80
2022-10-23T08:00:58.615Z,77.90
2022-10-23T08:03:27.097Z,78.00
2022-10-23T08:05:55.571Z,78.10
2022-10-23T08:08:24.267Z,78.20
2022-10-23T08:10:53.479Z,78.30
2022-10-23T08:13:22.948Z,78.50
2022-10-23T08:15:52.643Z,78.60
2022-10-23T08:18:22.073Z,78.80
2022-10-23T08:20:52.375Z,78.90
2022-10-23T08:23:21.192Z,79.00
2022-10-23T08:25:49.270Z,78.90
2022-10-23T08:28:17.661Z,78.90
2022-10-23T08:30:45.691Z,79.00
2022-10-23T08:33:13.706Z,78.80
2022-10-23T08:35:43.094Z,78.80
2022-10-23T08:38:12.443Z,78.80
2022-10-23T08:40:45.927Z,78.60
2022-10-23T08:43:21.071Z,79.40
2022-10-23T08:45:52.350Z,78.30
2022-10-23T08:48:26.280Z,78.10
2022-10-23T08:50:59.347Z,77.80
2022-10-23T08:53:33.888Z,78.30
2022-10-23T08:56:05.536Z,77.40
2022-10-23T08:58:40.174Z,77.20
2022-10-23T09:01:31.925Z,77.10
2022-10-23T09:04:00.290Z,77.00
2022-10-23T09:06:37.946Z,76.90
2022-10-23T09:09:41.122Z,76.70
2022-10-23T09:12:12.735Z,76.50
2022-10-23T09:14:58.610Z,76.40
2022-10-23T09:17:28.762Z,76.40
2022-10-23T09:20:02.878Z,76.40
2022-10-23T09:22:32.357Z,76.40
2022-10-23T09:25:00.492Z,76.40
2022-10-23T09:27:28.567Z,76.30
2022-10-23T09:29:59.341Z,76.40
2022-10-23T09:32:38.923Z,76.40
2022-10-23T09:35:08.256Z,76.40
2022-10-23T09:37:48.486Z,76.30
2022-10-23T09:40:20.782Z,76.30
2022-10-23T09:42:58.059Z,76.00
2022-10-23T09:45:29.301Z,76.00
2022-10-23T09:48:15.049Z,75.60
2022-10-23T09:50:50.907Z,75.60
2022-10-23T09:53:27.402Z,75.40
2022-10-23T09:55:57.830Z,75.60
2022-10-23T09:58:33.071Z,75.20
2022-10-23T10:01:01.677Z,75.10
2022-10-23T10:03:29.750Z,75.30
2022-10-23T10:06:00.084Z,75.80
2022-10-23T10:08:37.444Z,74.80
2022-10-23T10:11:13.213Z,74.60
2022-10-23T10:14:02.403Z,74.50
2022-10-23T10:19:22.806Z,74.50
2022-10-23T10:21:55.352Z,74.50
2022-10-23T10:24:31.234Z,74.20
2022-10-23T10:27:05.034Z,74.10
2022-10-23T10:29:52.220Z,74.10
2022-10-23T10:32:36.182Z,73.90
2022-10-23T10:35:24.664Z,73.70
2022-10-23T10:38:06.756Z,73.70
2022-10-23T10:40:41.341Z,73.60
2022-10-23T10:43:22.331Z,73.50
2022-10-23T10:45:58.456Z,73.10
2022-10-23T10:48:41.916Z,73.10
2022-10-23T10:51:15.026Z,72.70
2022-10-23T10:53:53.206Z,72.90
2022-10-23T10:56:24.211Z,72.90
2022-10-23T10:58:56.323Z,72.80
2022-10-23T11:01:28.866Z,72.90
2022-10-23T11:04:02.849Z,72.70
2022-10-23T11:06:35.214Z,72.20
2022-10-23T11:09:20.134Z,72.10
2022-10-23T11:11:50.854Z,72.10
2022-10-23T11:14:20.827Z,72.20
2022-10-23T11:16:51.848Z,72.10
2022-10-23T11:19:24.416Z,72.20
2022-10-23T11:21:59.460Z,71.90
2022-10-23T11:24:53.395Z,71.60
2022-10-23T11:27:39.738Z,71.80
2022-10-23T11:30:23.963Z,72.00
2022-10-23T11:33:21.703Z,72.00
2022-10-23T11:35:58.437Z,71.80
2022-10-23T11:38:29.927Z,71.90
2022-10-23T11:41:02.099Z,71.30
2022-10-23T11:43:34.378Z,71.20
2022-10-23T11:46:14.183Z,71.20
2022-10-23T11:48:44.195Z,70.80
2022-10-23T11:51:30.740Z,70.90
2022-10-23T11:54:22.419Z,70.70
2022-10-23T11:56:56.039Z,70.70
2022-10-23T11:59:29.410Z,70.70
2022-10-23T12:01:59.424Z,71.10
2022-10-23T12:04:31.991Z,71.20
2022-10-23T12:07:05.372Z,71.30
2022-10-23T12:09:38.241Z,71.20
2022-10-23T12:12:17.129Z,71.30
2022-10-23T12:14:47.811Z,71.30
2022-10-23T12:17:35.727Z,71.30
2022-10-23T12:20:20.701Z,71.30
2022-10-23T12:22:59.559Z,71.40
2022-10-23T12:25:35.136Z,71.40
2022-10-23T12:28:09.787Z,71.30
2022-10-23T12:30:46.188Z,71.30
2022-10-23T12:33:25.790Z,71.40
2022-10-23T12:36:08.602Z,71.40
2022-10-23T12:38:45.284Z,71.10
2022-10-23T12:41:15.843Z,70.70
2022-10-23T12:43:46.619Z,70.80
2022-10-23T12:46:31.587Z,70.60
2022-10-23T12:49:00.964Z,70.30
2022-10-23T12:51:30.766Z,70.40
2022-10-23T12:53:59.092Z,70.20
2022-10-23T12:56:30.521Z,70.20
2022-10-23T12:59:01.694Z,70.20
2022-10-23T13:01:33.117Z,70.30
2022-10-23T13:04:14.579Z,70.30
2022-10-23T13:06:43.265Z,70.20
2022-10-23T13:09:24.078Z,70.60
2022-10-23T13:11:53.454Z,69.90
2022-10-23T13:14:34.426Z,70.00
2022-10-23T13:17:05.745Z,69.80
2022-10-23T13:19:34.541Z,69.70
2022-10-23T13:22:05.195Z,70.10
2022-10-23T13:24:33.585Z,69.10
2022-10-23T13:27:01.696Z,69.30
2022-10-23T13:29:32.487Z,69.30
2022-10-23T13:32:11.407Z,69.10
2022-10-23T13:34:39.473Z,68.80
2022-10-23T13:37:25.463Z,68.80
2022-10-23T13:40:03.470Z,68.60
2022-10-23T13:42:31.692Z,68.60
2022-10-23T13:44:59.734Z,68.90
2022-10-23T13:47:29.160Z,69.00
2022-10-23T13:49:57.177Z,68.80
2022-10-23T13:52:25.306Z,68.80
2022-10-23T13:54:53.375Z,68.80
2022-10-23T13:57:21.407Z,68.90
2022-10-23T13:59:49.427Z,69.00
2022-10-23T14:02:21.006Z,69.20
2022-10-23T14:04:51.387Z,69.10
2022-10-23T14:07:19.606Z,69.00
2022-10-23T14:09:50.457Z,68.90
2022-10-23T14:12:18.846Z,69.00
2022-10-23T14:14:51.181Z,69.70
2022-10-23T14:17:19.349Z,69.90
2022-10-23T14:19:47.471Z,69.60
2022-10-23T14:22:17.995Z,70.20
2022-10-23T14:24:46.047Z,68.70
2022-10-23T14:27:14.126Z,68.50
2022-10-23T14:29:42.582Z,68.10
2022-10-23T14:32:10.965Z,68.00
2022-10-23T14:34:41.235Z,68.10
2022-10-23T14:37:09.484Z,68.00
2022-10-23T14:39:38.975Z,68.00
2022-10-23T14:42:07.121Z,67.90
2022-10-23T14:44:35.262Z,68.00
2022-10-23T14:47:03.346Z,68.20
2022-10-23T14:49:31.810Z,68.30
2022-10-23T14:51:59.910Z,68.30
2022-10-23T14:54:29.329Z,68.40
2022-10-23T14:56:58.752Z,68.50
2022-10-23T14:59:26.854Z,68.60
2022-10-23T15:01:54.901Z,68.60
2022-10-23T15:04:23.202Z,68.80
2022-10-23T15:06:51.483Z,68.80
2022-10-23T15:09:20.274Z,68.90
2022-10-23T15:11:48.795Z,68.90
2022-10-23T15:14:18.260Z,68.90
2022-10-23T15:16:46.325Z,69.00
2022-10-23T15:19:18.693Z,69.10
2022-10-23T15:21:47.851Z,69.30
2022-10-23T15:24:16.068Z,69.40
2022-10-23T15:26:44.497Z,69.40
2022-10-23T15:29:14.415Z,69.60
2022-10-23T15:31:49.877Z,69.60
2022-10-23T15:34:20.620Z,69.60
2022-10-23T15:36:49.627Z,69.60
2022-10-23T15:39:20.557Z,69.60
2022-10-23T15:41:51.256Z,69.50
2022-10-23T15:44:21.285Z,69.70
2022-10-23T15:46:51.607Z,69.80
2022-10-23T15:49:20.054Z,69.70
2022-10-23T15:51:48.184Z,69.90
2022-10-23T15:54:19.042Z,69.90
2022-10-23T15:56:49.037Z,69.90
2022-10-23T15:59:17.860Z,70.00
2022-10-23T16:01:45.983Z,70.10
2022-10-23T16:04:16.078Z,70.00
2022-10-23T16:06:44.701Z,70.00
2022-10-23T16:09:13.084Z,70.10
2022-10-23T16:11:43.259Z,70.00
2022-10-23T16:14:14.279Z,70.10
2022-10-23T16:16:42.403Z,70.10
2022-10-23T16:19:11.799Z,70.20
2022-10-23T16:21:42.297Z,70.30
2022-10-23T16:24:11.018Z,70.30
2022-10-23T16:26:39.304Z,70.40
2022-10-23T16:29:09.471Z,70.30
2022-10-23T16:31:37.857Z,70.30
2022-10-23T16:34:06.787Z,70.40
2022-10-23T16:36:35.208Z,70.50
2022-10-23T16:39:05.875Z,70.50
2022-10-23T16:41:33.936Z,70.50
2022-10-23T16:44:02.145Z,70.50
2022-10-23T16:46:30.340Z,70.60
2022-10-23T16:48:58.551Z,70.70
2022-10-23T16:51:27.867Z,70.60
2022-10-23T16:53:56.814Z,70.50
2022-10-23T16:56:29.618Z,70.50
2022-10-23T17:01:33.118Z,70.60
2022-10-23T17:04:01.782Z,70.70
2022-10-23T17:06:32.040Z,70.60
2022-10-23T17:09:01.478Z,70.60
2022-10-23T17:11:32.186Z,70.70
2022-10-23T17:14:02.159Z,70.60
2022-10-23T17:16:31.684Z,70.60
2022-10-23T17:19:00.065Z,70.60
2022-10-23T17:21:31.963Z,70.70
2022-10-23T17:23:59.843Z,70.70
2022-10-23T17:26:28.600Z,70.80
2022-10-23T17:28:58.384Z,70.60
2022-10-23T17:31:28.702Z,70.70
2022-10-23T17:33:59.037Z,70.70
2022-10-23T17:36:28.174Z,70.80
2022-10-23T17:38:56.457Z,70.90
2022-10-23T17:41:26.274Z,70.80
2022-10-23T17:43:59.081Z,70.90
2022-10-23T17:46:29.188Z,70.90
2022-10-23T17:48:59.171Z,71.00
2022-10-23T17:51:28.572Z,71.00
2022-10-23T17:53:58.355Z,71.00
2022-10-23T17:56:29.279Z,71.00
2022-10-23T17:59:01.851Z,71.00
2022-10-23T18:01:31.004Z,71.00
2022-10-23T18:04:02.052Z,71.00
2022-10-23T18:06:32.974Z,71.00
2022-10-23T18:09:02.512Z,71.00
2022-10-23T18:11:33.619Z,71.10
2022-10-23T18:14:03.921Z,71.10
2022-10-23T18:16:32.129Z,71.10
2022-10-23T18:19:01.897Z,71.20
2022-10-23T18:21:30.439Z,71.30
2022-10-23T18:24:00.083Z,71.40
2022-10-23T18:26:30.983Z,71.70
2022-10-23T18:29:00.600Z,71.80
2022-10-23T18:31:30.867Z,71.80
2022-10-23T18:34:01.422Z,72.30
2022-10-23T18:36:32.123Z,72.60
2022-10-23T18:39:00.256Z,72.90
2022-10-23T18:41:29.071Z,73.30
2022-10-23T18:43:57.348Z,73.50
2022-10-23T18:46:25.400Z,73.80
2022-10-23T18:48:54.864Z,74.30
2022-10-23T18:51:25.044Z,74.60
2022-10-23T18:53:53.721Z,75.10
2022-10-23T18:56:26.678Z,75.40
2022-10-23T18:58:56.280Z,75.70
2022-10-23T19:01:26.957Z,75.90
2022-10-23T19:04:00.597Z,76.30
2022-10-23T19:06:29.567Z,76.60
2022-10-23T19:08:57.735Z,76.70
2022-10-23T19:11:27.992Z,76.90
2022-10-23T19:13:56.661Z,77.30
2022-10-23T19:16:28.135Z,77.50
2022-10-23T19:19:01.036Z,77.80
2022-10-23T19:21:33.105Z,77.90
2022-10-23T19:24:03.007Z,78.10
2022-10-23T19:26:33.445Z,78.20
2022-10-23T19:29:01.741Z,78.40
2022-10-23T19:31:29.881Z,78.40
2022-10-23T19:34:00.324Z,78.50
2022-10-23T19:43:51.438Z,78.90
2022-10-23T19:46:19.914Z,78.50
2022-10-23T19:48:48.091Z,78.60
2022-10-23T19:51:17.679Z,78.90
2022-10-23T19:53:45.915Z,79.00
2022-10-23T19:56:14.486Z,79.10
2022-10-23T19:58:42.749Z,79.20
2022-10-23T20:01:12.896Z,79.30
2022-10-23T20:03:42.369Z,79.40
2022-10-23T20:06:12.474Z,79.50
2022-10-23T20:08:42.537Z,79.60
2022-10-23T20:11:11.367Z,79.60
2022-10-23T20:13:39.530Z,79.70
2022-10-23T20:16:08.262Z,79.70
2022-10-23T20:18:36.582Z,79.80
2022-10-23T20:21:04.933Z,79.90
2022-10-23T20:23:33.106Z,80.00
2022-10-23T20:26:11.769Z,80.00
2022-10-23T20:28:40.415Z,80.30
2022-10-23T20:31:10.070Z,80.10
2022-10-23T20:33:38.382Z,80.10
2022-10-23T20:36:09.085Z,80.10
2022-10-23T20:38:37.715Z,80.20
2022-10-23T20:41:05.977Z,80.30
2022-10-23T20:43:35.527Z,80.40
2022-10-23T20:46:07.903Z,80.50
2022-10-23T20:48:36.897Z,80.60
2022-10-23T20:51:05.691Z,80.50
2022-10-23T20:53:35.030Z,80.50
2022-10-23T20:56:06.284Z,80.50
2022-10-23T20:58:36.476Z,80.60
2022-10-23T21:01:05.827Z,80.60
2022-10-23T21:03:34.411Z,80.60
2022-10-23T21:06:06.644Z,80.50
2022-10-23T21:08:34.962Z,80.50
2022-10-23T21:11:03.206Z,80.30
2022-10-23T21:13:32.259Z,80.20
2022-10-23T21:16:01.822Z,80.30
2022-10-23T21:18:45.052Z,80.40
2022-10-23T21:21:14.085Z,80.30
2022-10-23T21:23:42.669Z,80.30
2022-10-23T21:26:10.847Z,80.40
2022-10-23T21:28:41.734Z,80.50
2022-10-23T21:31:17.202Z,80.50
2022-10-23T21:33:46.853Z,80.60
2022-10-23T21:36:17.453Z,80.70
2022-10-23T21:38:45.782Z,80.70
2022-10-23T21:41:16.550Z,80.80
2022-10-23T21:43:45.459Z,80.80
2022-10-23T21:46:15.156Z,81.00
2022-10-23T21:48:45.706Z,81.10
2022-10-23T21:51:17.216Z,81.20
2022-10-23T21:53:45.441Z,81.30
2022-10-23T21:56:24.967Z,81.30
2022-10-23T21:58:53.187Z,81.50
2022-10-23T22:01:21.981Z,81.30
2022-10-23T22:03:51.884Z,81.40
2022-10-23T22:06:22.541Z,81.50
2022-10-23T22:08:52.268Z,81.50
2022-10-23T22:11:20.653Z,81.50
2022-10-23T22:13:48.986Z,81.50
2022-10-23T22:16:18.195Z,81.50
2022-10-23T22:18:46.411Z,81.60
2022-10-23T22:21:18.757Z,81.60
2022-10-23T22:23:49.281Z,81.70
2022-10-23T22:26:23.191Z,81.70
2022-10-23T22:28:52.292Z,81.90
2022-10-23T22:31:22.357Z,81.80
2022-10-23T22:33:50.880Z,81.80
2022-10-23T22:36:21.232Z,81.70
2022-10-23T22:38:49.727Z,81.70
2022-10-23T22:41:18.237Z,81.60
2022-10-23T22:43:46.441Z,81.60
2022-10-23T22:46:19.028Z,81.60
2022-10-23T22:48:47.231Z,81.60
2022-10-23T22:51:17.375Z,81.60
2022-10-23T22:53:47.855Z,81.60
2022-10-23T22:56:18.823Z,81.60
2022-10-23T22:58:47.477Z,81.60
2022-10-23T23:01:18.484Z,81.60
2022-10-23T23:03:47.166Z,81.60
2022-10-23T23:06:15.898Z,81.60
2022-10-23T23:08:44.535Z,81.60
2022-10-23T23:11:15.903Z,81.60
2022-10-23T23:13:44.876Z,81.70
2022-10-23T23:16:20.592Z,81.60
2022-10-23T23:18:48.862Z,81.70
2022-10-23T23:21:18.003Z,81.60
2022-10-23T23:23:46.420Z,81.70
2022-10-23T23:26:17.098Z,81.70
2022-10-23T23:28:45.438Z,81.80
2022-10-23T23:31:17.644Z,81.80
2022-10-23T23:33:46.150Z,81.90
2022-10-23T23:36:17.266Z,81.80
2022-10-23T23:38:45.464Z,81.80
2022-10-23T23:41:16.272Z,81.80
2022-10-23T23:43:44.801Z,81.80
2022-10-23T23:46:13.710Z,81.80
2022-10-23T23:48:47.305Z,81.80
2022-10-23T23:51:15.656Z,81.80
2022-10-23T23:53:44.113Z,81.70
2022-10-23T23:56:12.362Z,81.80
2022-10-23T23:58:42.076Z,81.80
